LGIR

Heraklion International Nikos Kazantzakis Airport

Heraklion, Greece
TAF LGIR 151100Z 1512/1612 32018KT 9999 FEW025 TEMPO 1601/1605 17010KT
Issued Valid From Valid To
Aug-15 @ 11:00 UTC
(2 hours ago)
Aug-15 @ 12:00 UTC
(39 minutes ago)
Aug-16 @ 12:00 UTC
(in 23 hours)
Aug-15 @ 12:00 to Aug-16 @ 12:00
TAF LGIR 151100Z 1512/1612 32018KT 9999 FEW025
Wind Visibility Clouds
320° at 18 knots 10,000+ meters
  • Few at 2,500' AGL
Temporary Aug-16 @ 01:00 to Aug-16 @ 05:00
TEMPO 1601/1605 17010KT
Wind
170° at 10 knots
TAF LGIR 151100Z 1512/1612 32018KT 9999 FEW025 TEMPO 1601/1605 17010KT
Issued Aug-15 @ 11:00 UTC
(2 hours ago)
Valid From Aug-15 @ 12:00 UTC
(39 minutes ago)
Valid To Aug-16 @ 12:00 UTC
(in 23 hours)
Aug-15 @ 12:00 - Aug-16 @ 12:00
Wind Visibility
320° at 18 knots 10,000+ meters
Clouds
  • Few at 2,500' AGL
Temporary Aug-16 @ 01:00 - Aug-16 @ 05:00
Wind
170° at 10 knots